AFR100 SOCA-TAPA
Flight info
| Callsign | AFR100 |
|---|---|
| Flight time | 2h 2m |
| Altitude | 38000 |
| Route | SILAT1A SILAT UA247 BUXEX UA555 TRAPP UL454 ETBIG DCT ANU |
| Aircraft | B77W/H-SDE1E2E3FGHIJ2J3J4J5M1RWXY/LB1D1 |
Departure
| Time | 2026-04-26 20:38 |
|---|---|
| Airport | Cayenne – Félix Eboué Airport (SOCA) |
Arrival
| Time | 2026-04-26 22:41 |
|---|---|
| Airport | V. C. Bird International Airport (TAPA) |
| Time | Latitude | Longitude | Altitude | Speed | Heading |
|---|---|---|---|---|---|
| 2026-04-26 19:59 | 4.82198 | -52.36251 | 40 ft | 0 kts | 305° |
| 2026-04-26 20:30 | 4.82195 | -52.36246 | 40 ft | 2 kts | 305° |
| 2026-04-26 20:30 | 4.82186 | -52.36234 | 40 ft | 2 kts | 305° |
| 2026-04-26 20:30 | 4.82177 | -52.36221 | 40 ft | 1 kts | 305° |
| 2026-04-26 20:31 | 4.82172 | -52.36213 | 40 ft | 2 kts | 302° |
| 2026-04-26 20:31 | 4.82165 | -52.36200 | 40 ft | 2 kts | 287° |
| 2026-04-26 20:31 | 4.82162 | -52.36185 | 40 ft | 2 kts | 276° |
| 2026-04-26 20:31 | 4.82161 | -52.36172 | 40 ft | 2 kts | 266° |
| 2026-04-26 20:32 | 4.82163 | -52.36156 | 40 ft | 2 kts | 254° |
| 2026-04-26 20:32 | 4.82167 | -52.36145 | 40 ft | 0 kts | 246° |
| 2026-04-26 20:32 | 4.82162 | -52.36157 | 40 ft | 4 kts | 248° |
| 2026-04-26 20:32 | 4.82156 | -52.36172 | 40 ft | 0 kts | 246° |
| 2026-04-26 20:37 | 4.82141 | -52.36201 | 39 ft | 10 kts | 241° |
| 2026-04-26 20:37 | 4.82094 | -52.36250 | 39 ft | 9 kts | 195° |
| 2026-04-26 20:37 | 4.82032 | -52.36237 | 40 ft | 8 kts | 159° |
| 2026-04-26 20:37 | 4.81981 | -52.36194 | 40 ft | 12 kts | 106° |
| 2026-04-26 20:38 | 4.82031 | -52.36058 | 40 ft | 41 kts | 65° |
| 2026-04-26 20:38 | 4.82260 | -52.35559 | 43 ft | 113 kts | 65° |
| 2026-04-26 20:38 | 4.82706 | -52.34586 | 179 ft | 183 kts | 66° |
| 2026-04-26 20:38 | 4.83404 | -52.33479 | 923 ft | 189 kts | 39° |
| 2026-04-26 20:39 | 4.84702 | -52.33001 | 1380 ft | 216 kts | 4° |
| 2026-04-26 20:39 | 4.86182 | -52.33220 | 1907 ft | 211 kts | 349° |
| 2026-04-26 20:39 | 4.87597 | -52.33592 | 2198 ft | 207 kts | 349° |
| 2026-04-26 20:39 | 4.89016 | -52.33882 | 2783 ft | 212 kts | 360° |
| 2026-04-26 20:40 | 4.90547 | -52.34172 | 3236 ft | 232 kts | 347° |
| 2026-04-26 20:40 | 4.92137 | -52.34713 | 3716 ft | 250 kts | 344° |
| 2026-04-26 20:40 | 4.93825 | -52.35316 | 4216 ft | 265 kts | 343° |
| 2026-04-26 20:40 | 4.95590 | -52.35949 | 4918 ft | 272 kts | 343° |
| 2026-04-26 20:41 | 4.97370 | -52.36590 | 5691 ft | 275 kts | 343° |
| 2026-04-26 20:41 | 4.99191 | -52.37246 | 6449 ft | 278 kts | 343° |
| 2026-04-26 20:41 | 5.01023 | -52.37906 | 7173 ft | 282 kts | 343° |
| 2026-04-26 20:41 | 5.02896 | -52.38580 | 7873 ft | 287 kts | 343° |
| 2026-04-26 20:42 | 5.04788 | -52.39261 | 8570 ft | 290 kts | 343° |
| 2026-04-26 20:42 | 5.06712 | -52.39954 | 9226 ft | 294 kts | 344° |
| 2026-04-26 20:42 | 5.08632 | -52.40645 | 9908 ft | 297 kts | 343° |
| 2026-04-26 20:42 | 5.10622 | -52.41361 | 10370 ft | 310 kts | 344° |
| 2026-04-26 20:43 | 5.12720 | -52.42113 | 10740 ft | 326 kts | 343° |
| 2026-04-26 20:43 | 5.14930 | -52.42907 | 11133 ft | 343 kts | 343° |
| 2026-04-26 20:43 | 5.17206 | -52.43726 | 11550 ft | 357 kts | 343° |
| 2026-04-26 20:43 | 5.19610 | -52.44591 | 11985 ft | 372 kts | 343° |
| 2026-04-26 20:44 | 5.22103 | -52.45489 | 12425 ft | 387 kts | 342° |
| 2026-04-26 20:44 | 5.24670 | -52.46414 | 12985 ft | 397 kts | 342° |
| 2026-04-26 20:44 | 5.27302 | -52.47364 | 13710 ft | 403 kts | 342° |
| 2026-04-26 20:44 | 5.29960 | -52.48324 | 14572 ft | 405 kts | 342° |
| 2026-04-26 20:45 | 5.32604 | -52.49279 | 15439 ft | 409 kts | 342° |
| 2026-04-26 20:45 | 5.35297 | -52.50252 | 16223 ft | 414 kts | 342° |
| 2026-04-26 20:45 | 5.38041 | -52.51243 | 16991 ft | 419 kts | 342° |
| 2026-04-26 20:45 | 5.40794 | -52.52238 | 17763 ft | 423 kts | 342° |
| 2026-04-26 20:46 | 5.43534 | -52.53350 | 18428 ft | 432 kts | 336° |
| 2026-04-26 20:46 | 5.46141 | -52.54909 | 19099 ft | 441 kts | 326° |
| 2026-04-26 20:46 | 5.48494 | -52.56905 | 19794 ft | 448 kts | 316° |
| 2026-04-26 20:46 | 5.50615 | -52.59215 | 20442 ft | 454 kts | 313° |
| 2026-04-26 20:47 | 5.52727 | -52.61608 | 21073 ft | 460 kts | 313° |
| 2026-04-26 20:47 | 5.54153 | -52.63225 | 21507 ft | 463 kts | 313° |
| 2026-04-26 20:47 | 5.57019 | -52.66472 | 22299 ft | 470 kts | 313° |
| 2026-04-26 20:47 | 5.59203 | -52.68942 | 22898 ft | 475 kts | 313° |
| 2026-04-26 20:48 | 5.61391 | -52.71415 | 23524 ft | 479 kts | 313° |
| 2026-04-26 20:48 | 5.63627 | -52.73941 | 24195 ft | 483 kts | 313° |
| 2026-04-26 20:48 | 5.65858 | -52.76460 | 24829 ft | 487 kts | 313° |
| 2026-04-26 20:48 | 5.68129 | -52.79024 | 25433 ft | 491 kts | 313° |
| 2026-04-26 20:49 | 5.70392 | -52.81579 | 26015 ft | 496 kts | 313° |
| 2026-04-26 20:49 | 5.72713 | -52.84200 | 26634 ft | 500 kts | 313° |
| 2026-04-26 20:49 | 5.75014 | -52.86798 | 27233 ft | 504 kts | 313° |
| 2026-04-26 20:49 | 5.77347 | -52.89432 | 27826 ft | 509 kts | 312° |
| 2026-04-26 20:50 | 5.79715 | -52.92106 | 28399 ft | 513 kts | 313° |
| 2026-04-26 20:50 | 5.82095 | -52.94793 | 28968 ft | 517 kts | 312° |
| 2026-04-26 20:50 | 5.84492 | -52.97501 | 29637 ft | 518 kts | 312° |
| 2026-04-26 20:50 | 5.86879 | -53.00198 | 30503 ft | 515 kts | 312° |
| 2026-04-26 20:51 | 5.89249 | -53.02876 | 31553 ft | 507 kts | 312° |
| 2026-04-26 20:51 | 5.91543 | -53.05468 | 32502 ft | 500 kts | 312° |
| 2026-04-26 20:51 | 5.93838 | -53.08061 | 33386 ft | 495 kts | 313° |
| 2026-04-26 20:51 | 5.96112 | -53.10631 | 34096 ft | 493 kts | 313° |
| 2026-04-26 20:52 | 5.98421 | -53.13241 | 34765 ft | 492 kts | 313° |
| 2026-04-26 20:52 | 6.00662 | -53.15774 | 35441 ft | 490 kts | 313° |
| 2026-04-26 20:52 | 6.02931 | -53.18338 | 36108 ft | 488 kts | 313° |
| 2026-04-26 20:52 | 6.05182 | -53.20884 | 36652 ft | 487 kts | 313° |
| 2026-04-26 20:53 | 6.07478 | -53.23480 | 37086 ft | 487 kts | 313° |
| 2026-04-26 20:53 | 6.09740 | -53.26038 | 37493 ft | 488 kts | 313° |
| 2026-04-26 20:53 | 6.11987 | -53.28579 | 37893 ft | 488 kts | 313° |
| 2026-04-26 20:54 | 6.16482 | -53.33665 | 37907 ft | 486 kts | 313° |
| 2026-04-26 20:54 | 6.20988 | -53.38764 | 37907 ft | 486 kts | 313° |
| 2026-04-26 20:55 | 6.25452 | -53.43818 | 37905 ft | 485 kts | 313° |
| 2026-04-26 20:55 | 6.29962 | -53.48924 | 37905 ft | 486 kts | 313° |
| 2026-04-26 20:56 | 6.34397 | -53.53947 | 37900 ft | 486 kts | 313° |
| 2026-04-26 20:56 | 6.38935 | -53.59087 | 37903 ft | 497 kts | 313° |
| 2026-04-26 20:57 | 6.43566 | -53.64335 | 37903 ft | 508 kts | 313° |
| 2026-04-26 20:57 | 6.48267 | -53.69665 | 37899 ft | 508 kts | 312° |
| 2026-04-26 20:58 | 6.52969 | -53.74997 | 37899 ft | 508 kts | 312° |
| 2026-04-26 20:58 | 6.57667 | -53.80326 | 37894 ft | 508 kts | 312° |
| 2026-04-26 20:59 | 6.62369 | -53.85663 | 37890 ft | 508 kts | 312° |
| 2026-04-26 20:59 | 6.67057 | -53.90983 | 37891 ft | 508 kts | 312° |
| 2026-04-26 21:00 | 6.71738 | -53.96298 | 37889 ft | 507 kts | 312° |
| 2026-04-26 21:00 | 6.76657 | -54.01414 | 37895 ft | 507 kts | 320° |
| 2026-04-26 21:01 | 6.82054 | -54.05998 | 37890 ft | 506 kts | 321° |
| 2026-04-26 21:01 | 6.87453 | -54.10562 | 37888 ft | 506 kts | 321° |
| 2026-04-26 21:02 | 6.92854 | -54.15134 | 37893 ft | 506 kts | 321° |
| 2026-04-26 21:02 | 6.98251 | -54.19706 | 37899 ft | 505 kts | 321° |
| 2026-04-26 21:03 | 7.03614 | -54.24252 | 37909 ft | 504 kts | 321° |
| 2026-04-26 21:03 | 7.08997 | -54.28817 | 37912 ft | 504 kts | 320° |
| 2026-04-26 21:04 | 7.14355 | -54.33363 | 37912 ft | 504 kts | 320° |
| 2026-04-26 21:04 | 7.19713 | -54.37911 | 37915 ft | 504 kts | 320° |
| 2026-04-26 21:05 | 7.25094 | -54.42479 | 37913 ft | 503 kts | 321° |
| 2026-04-26 21:05 | 7.30411 | -54.46995 | 37915 ft | 503 kts | 321° |
| 2026-04-26 21:06 | 7.35762 | -54.51542 | 37920 ft | 502 kts | 321° |
| 2026-04-26 21:06 | 7.41114 | -54.56090 | 37919 ft | 501 kts | 321° |
| 2026-04-26 21:07 | 7.46484 | -54.60655 | 37921 ft | 502 kts | 321° |
| 2026-04-26 21:07 | 7.51815 | -54.65189 | 37918 ft | 501 kts | 321° |
| 2026-04-26 21:08 | 7.57122 | -54.69704 | 37909 ft | 501 kts | 321° |
| 2026-04-26 21:08 | 7.62447 | -54.74236 | 37909 ft | 500 kts | 321° |
| 2026-04-26 21:09 | 7.67770 | -54.78767 | 37909 ft | 499 kts | 320° |
| 2026-04-26 21:09 | 7.73097 | -54.83303 | 37909 ft | 500 kts | 320° |
| 2026-04-26 21:10 | 7.78401 | -54.87822 | 37909 ft | 499 kts | 321° |
| 2026-04-26 21:10 | 7.83706 | -54.92342 | 37909 ft | 500 kts | 321° |
| 2026-04-26 21:11 | 7.89028 | -54.96880 | 37909 ft | 499 kts | 321° |
| 2026-04-26 21:11 | 7.94311 | -55.01385 | 37909 ft | 499 kts | 320° |
| 2026-04-26 21:12 | 7.99624 | -55.05917 | 37909 ft | 499 kts | 320° |
| 2026-04-26 21:12 | 8.04936 | -55.10450 | 37909 ft | 500 kts | 320° |
| 2026-04-26 21:13 | 8.10269 | -55.15003 | 37911 ft | 500 kts | 320° |
| 2026-04-26 21:13 | 8.15563 | -55.19523 | 37912 ft | 500 kts | 320° |
| 2026-04-26 21:14 | 8.20874 | -55.24060 | 37915 ft | 499 kts | 320° |
| 2026-04-26 21:14 | 8.26223 | -55.28632 | 37920 ft | 499 kts | 320° |
| 2026-04-26 21:15 | 8.31525 | -55.33165 | 37926 ft | 499 kts | 320° |
| 2026-04-26 21:15 | 8.36815 | -55.37689 | 37929 ft | 500 kts | 320° |
| 2026-04-26 21:16 | 8.42151 | -55.42254 | 37928 ft | 501 kts | 320° |
| 2026-04-26 21:16 | 8.47437 | -55.46778 | 37927 ft | 500 kts | 320° |
| 2026-04-26 21:17 | 8.52760 | -55.51335 | 37928 ft | 499 kts | 320° |
| 2026-04-26 21:17 | 8.58070 | -55.55884 | 37930 ft | 499 kts | 320° |
| 2026-04-26 21:18 | 8.63357 | -55.60414 | 37932 ft | 499 kts | 320° |
| 2026-04-26 21:18 | 8.68652 | -55.64952 | 37930 ft | 500 kts | 320° |
| 2026-04-26 21:19 | 8.73975 | -55.69516 | 37932 ft | 501 kts | 320° |
| 2026-04-26 21:19 | 8.79262 | -55.74052 | 37932 ft | 499 kts | 320° |
| 2026-04-26 21:20 | 8.84544 | -55.78585 | 37934 ft | 499 kts | 320° |
| 2026-04-26 21:20 | 8.89857 | -55.83146 | 37931 ft | 499 kts | 320° |
| 2026-04-26 21:21 | 8.95132 | -55.87676 | 37930 ft | 499 kts | 320° |
| 2026-04-26 21:21 | 9.00421 | -55.92220 | 37929 ft | 498 kts | 320° |
| 2026-04-26 21:22 | 9.05714 | -55.96769 | 37931 ft | 499 kts | 320° |
| 2026-04-26 21:22 | 9.10985 | -56.01404 | 37937 ft | 500 kts | 317° |
| 2026-04-26 21:23 | 9.18616 | -56.08619 | 37932 ft | 501 kts | 317° |
| 2026-04-26 21:23 | 9.23719 | -56.13431 | 37936 ft | 499 kts | 317° |
| 2026-04-26 21:24 | 9.28829 | -56.18243 | 37935 ft | 500 kts | 317° |
| 2026-04-26 21:24 | 9.33907 | -56.23022 | 37936 ft | 500 kts | 317° |
| 2026-04-26 21:25 | 9.39022 | -56.27834 | 37939 ft | 500 kts | 317° |
| 2026-04-26 21:25 | 9.44121 | -56.32633 | 37937 ft | 501 kts | 317° |
| 2026-04-26 21:26 | 9.49225 | -56.37438 | 37941 ft | 501 kts | 317° |
| 2026-04-26 21:26 | 9.54329 | -56.42244 | 37943 ft | 500 kts | 317° |
| 2026-04-26 21:27 | 9.59433 | -56.47052 | 37947 ft | 501 kts | 317° |
| 2026-04-26 21:27 | 9.64541 | -56.51865 | 37948 ft | 499 kts | 317° |
| 2026-04-26 21:28 | 9.69630 | -56.56662 | 37947 ft | 499 kts | 317° |
| 2026-04-26 21:28 | 9.74694 | -56.61439 | 37946 ft | 497 kts | 317° |
| 2026-04-26 21:29 | 9.79747 | -56.66206 | 37946 ft | 496 kts | 316° |
| 2026-04-26 21:29 | 9.84792 | -56.70969 | 37947 ft | 496 kts | 316° |
| 2026-04-26 21:30 | 9.89825 | -56.75722 | 37946 ft | 494 kts | 316° |
| 2026-04-26 21:30 | 9.94894 | -56.80512 | 37948 ft | 495 kts | 316° |
| 2026-04-26 21:31 | 9.99921 | -56.85263 | 37952 ft | 494 kts | 316° |
| 2026-04-26 21:31 | 10.04934 | -56.90004 | 37951 ft | 493 kts | 316° |
| 2026-04-26 21:32 | 10.09966 | -56.94764 | 37955 ft | 494 kts | 316° |
| 2026-04-26 21:32 | 10.14974 | -56.99504 | 37955 ft | 494 kts | 316° |
| 2026-04-26 21:33 | 10.20029 | -57.04291 | 37950 ft | 492 kts | 316° |
| 2026-04-26 21:33 | 10.25020 | -57.09020 | 37946 ft | 492 kts | 316° |
| 2026-04-26 21:34 | 10.30025 | -57.13764 | 37941 ft | 492 kts | 316° |
| 2026-04-26 21:34 | 10.35044 | -57.18523 | 37942 ft | 492 kts | 316° |
| 2026-04-26 21:35 | 10.40057 | -57.23279 | 37943 ft | 492 kts | 316° |
| 2026-04-26 21:35 | 10.45047 | -57.28016 | 37940 ft | 491 kts | 316° |
| 2026-04-26 21:36 | 10.49188 | -57.31947 | 37942 ft | 491 kts | 316° |
| 2026-04-26 21:36 | 10.55047 | -57.37513 | 37936 ft | 492 kts | 316° |
| 2026-04-26 21:37 | 10.60028 | -57.42247 | 37938 ft | 493 kts | 316° |
| 2026-04-26 21:37 | 10.65038 | -57.47012 | 37939 ft | 491 kts | 316° |
| 2026-04-26 21:38 | 10.70016 | -57.51747 | 37938 ft | 491 kts | 316° |
| 2026-04-26 21:38 | 10.75006 | -57.56497 | 37944 ft | 490 kts | 316° |
| 2026-04-26 21:39 | 10.79992 | -57.61245 | 37947 ft | 491 kts | 316° |
| 2026-04-26 21:39 | 10.84958 | -57.65976 | 37946 ft | 491 kts | 315° |
| 2026-04-26 21:40 | 10.89940 | -57.70726 | 37949 ft | 491 kts | 315° |
| 2026-04-26 21:40 | 10.94930 | -57.75484 | 37951 ft | 490 kts | 315° |
| 2026-04-26 21:41 | 10.99912 | -57.80237 | 37951 ft | 490 kts | 315° |
| 2026-04-26 21:41 | 11.04880 | -57.84980 | 37948 ft | 490 kts | 315° |
| 2026-04-26 21:42 | 11.09851 | -57.89727 | 37952 ft | 490 kts | 315° |
| 2026-04-26 21:42 | 11.14807 | -57.94463 | 37950 ft | 490 kts | 315° |
| 2026-04-26 21:43 | 11.19782 | -57.99218 | 37947 ft | 491 kts | 315° |
| 2026-04-26 21:43 | 11.24778 | -58.03997 | 37950 ft | 490 kts | 315° |
| 2026-04-26 21:44 | 11.29728 | -58.08734 | 37949 ft | 491 kts | 315° |
| 2026-04-26 21:44 | 11.34730 | -58.13523 | 37950 ft | 491 kts | 315° |
| 2026-04-26 21:45 | 11.39693 | -58.18277 | 37949 ft | 491 kts | 315° |
| 2026-04-26 21:45 | 11.44658 | -58.23035 | 37950 ft | 491 kts | 315° |
| 2026-04-26 21:46 | 11.49618 | -58.27791 | 37949 ft | 490 kts | 315° |
| 2026-04-26 21:46 | 11.54607 | -58.32577 | 37950 ft | 491 kts | 315° |
| 2026-04-26 21:47 | 11.59568 | -58.37339 | 37947 ft | 491 kts | 315° |
| 2026-04-26 21:47 | 11.64533 | -58.42107 | 37951 ft | 490 kts | 315° |
| 2026-04-26 21:48 | 11.69509 | -58.46887 | 37952 ft | 490 kts | 315° |
| 2026-04-26 21:48 | 11.74469 | -58.51655 | 37953 ft | 491 kts | 315° |
| 2026-04-26 21:49 | 11.79443 | -58.56439 | 37950 ft | 490 kts | 314° |
| 2026-04-26 21:49 | 11.84394 | -58.61203 | 37950 ft | 490 kts | 315° |
| 2026-04-26 21:50 | 11.88515 | -58.65171 | 37959 ft | 489 kts | 314° |
| 2026-04-26 21:50 | 11.94276 | -58.70721 | 37971 ft | 489 kts | 314° |
| 2026-04-26 21:51 | 11.99220 | -58.75486 | 37974 ft | 487 kts | 314° |
| 2026-04-26 21:51 | 12.04158 | -58.80249 | 37974 ft | 489 kts | 314° |
| 2026-04-26 21:52 | 12.09092 | -58.85010 | 37980 ft | 487 kts | 314° |
| 2026-04-26 21:52 | 12.14070 | -58.89816 | 37977 ft | 490 kts | 314° |
| 2026-04-26 21:53 | 12.19012 | -58.94590 | 37978 ft | 488 kts | 314° |
| 2026-04-26 21:53 | 12.23938 | -58.99351 | 37968 ft | 487 kts | 314° |
| 2026-04-26 21:54 | 12.28846 | -59.04097 | 37974 ft | 488 kts | 314° |
| 2026-04-26 21:54 | 12.33802 | -59.08891 | 37971 ft | 487 kts | 314° |
| 2026-04-26 21:55 | 12.38751 | -59.13683 | 37973 ft | 489 kts | 314° |
| 2026-04-26 21:55 | 12.43661 | -59.18440 | 37971 ft | 490 kts | 314° |
| 2026-04-26 21:56 | 12.48619 | -59.23243 | 37972 ft | 490 kts | 314° |
| 2026-04-26 21:56 | 12.53590 | -59.28064 | 37968 ft | 491 kts | 314° |
| 2026-04-26 21:57 | 12.58570 | -59.32895 | 37969 ft | 491 kts | 314° |
| 2026-04-26 21:57 | 12.63514 | -59.37694 | 37970 ft | 490 kts | 314° |
| 2026-04-26 21:58 | 12.68473 | -59.42511 | 37968 ft | 490 kts | 314° |
| 2026-04-26 21:58 | 12.73415 | -59.47314 | 37968 ft | 491 kts | 314° |
| 2026-04-26 21:59 | 12.78371 | -59.52134 | 37968 ft | 492 kts | 314° |
| 2026-04-26 21:59 | 12.83345 | -59.56973 | 37970 ft | 493 kts | 314° |
| 2026-04-26 22:00 | 12.88336 | -59.61832 | 37969 ft | 493 kts | 314° |
| 2026-04-26 22:00 | 12.93317 | -59.66684 | 37975 ft | 493 kts | 313° |
| 2026-04-26 22:01 | 12.98294 | -59.71535 | 37975 ft | 493 kts | 313° |
| 2026-04-26 22:01 | 13.03240 | -59.76358 | 37975 ft | 493 kts | 313° |
| 2026-04-26 22:02 | 13.08207 | -59.81205 | 37977 ft | 493 kts | 314° |
| 2026-04-26 22:02 | 13.13206 | -59.86085 | 37974 ft | 493 kts | 313° |
| 2026-04-26 22:03 | 13.18184 | -59.90948 | 37973 ft | 493 kts | 313° |
| 2026-04-26 22:03 | 13.23142 | -59.95795 | 37973 ft | 493 kts | 313° |
| 2026-04-26 22:04 | 13.28103 | -60.00647 | 37974 ft | 493 kts | 313° |
| 2026-04-26 22:04 | 13.33374 | -60.05185 | 37972 ft | 498 kts | 325° |
| 2026-04-26 22:05 | 13.39643 | -60.08425 | 37974 ft | 502 kts | 333° |
| 2026-04-26 22:05 | 13.45970 | -60.11398 | 37978 ft | 500 kts | 333° |
| 2026-04-26 22:06 | 13.52311 | -60.14385 | 37980 ft | 501 kts | 333° |
| 2026-04-26 22:06 | 13.58725 | -60.17413 | 37980 ft | 500 kts | 333° |
| 2026-04-26 22:07 | 13.65028 | -60.20391 | 37986 ft | 500 kts | 333° |
| 2026-04-26 22:07 | 13.71401 | -60.23406 | 37988 ft | 500 kts | 333° |
| 2026-04-26 22:08 | 13.77721 | -60.26398 | 37987 ft | 499 kts | 333° |
| 2026-04-26 22:08 | 13.84056 | -60.29401 | 37989 ft | 502 kts | 333° |
| 2026-04-26 22:09 | 13.90431 | -60.32423 | 37990 ft | 502 kts | 333° |
| 2026-04-26 22:09 | 13.96763 | -60.35427 | 37993 ft | 502 kts | 333° |
| 2026-04-26 22:10 | 14.03118 | -60.38444 | 37993 ft | 501 kts | 333° |
| 2026-04-26 22:10 | 14.09454 | -60.41454 | 37991 ft | 502 kts | 333° |
| 2026-04-26 22:11 | 14.15823 | -60.44481 | 37990 ft | 501 kts | 333° |
| 2026-04-26 22:11 | 14.22176 | -60.47503 | 37988 ft | 502 kts | 332° |
| 2026-04-26 22:12 | 14.28526 | -60.50525 | 37989 ft | 502 kts | 333° |
| 2026-04-26 22:12 | 14.34908 | -60.53565 | 37989 ft | 504 kts | 333° |
| 2026-04-26 22:13 | 14.41307 | -60.56614 | 37990 ft | 504 kts | 333° |
| 2026-04-26 22:13 | 14.47668 | -60.59647 | 37989 ft | 504 kts | 333° |
| 2026-04-26 22:14 | 14.54024 | -60.62680 | 37989 ft | 504 kts | 333° |
| 2026-04-26 22:14 | 14.60436 | -60.65741 | 37992 ft | 502 kts | 332° |
| 2026-04-26 22:15 | 14.66829 | -60.68795 | 37994 ft | 504 kts | 332° |
| 2026-04-26 22:15 | 14.73218 | -60.71849 | 37993 ft | 505 kts | 332° |
| 2026-04-26 22:16 | 14.79634 | -60.74918 | 37993 ft | 504 kts | 332° |
| 2026-04-26 22:16 | 14.86022 | -60.77976 | 37993 ft | 505 kts | 332° |
| 2026-04-26 22:17 | 14.92421 | -60.81041 | 38000 ft | 504 kts | 332° |
| 2026-04-26 22:17 | 14.98807 | -60.84102 | 37997 ft | 505 kts | 332° |
| 2026-04-26 22:18 | 15.05161 | -60.87149 | 38001 ft | 505 kts | 332° |
| 2026-04-26 22:18 | 15.11592 | -60.90236 | 37995 ft | 505 kts | 332° |
| 2026-04-26 22:19 | 15.17975 | -60.93302 | 37995 ft | 506 kts | 332° |
| 2026-04-26 22:19 | 15.24382 | -60.96381 | 37995 ft | 506 kts | 332° |
| 2026-04-26 22:20 | 15.29780 | -60.98976 | 37997 ft | 506 kts | 332° |
| 2026-04-26 22:20 | 15.37173 | -61.02533 | 37276 ft | 499 kts | 332° |
| 2026-04-26 22:21 | 15.40315 | -61.04046 | 36231 ft | 501 kts | 332° |
| 2026-04-26 22:21 | 15.43486 | -61.05573 | 35393 ft | 499 kts | 332° |
| 2026-04-26 22:21 | 15.46646 | -61.07096 | 34594 ft | 496 kts | 332° |
| 2026-04-26 22:21 | 15.49775 | -61.08604 | 33740 ft | 495 kts | 332° |
| 2026-04-26 22:22 | 15.52882 | -61.10101 | 32895 ft | 493 kts | 332° |
| 2026-04-26 22:22 | 15.55986 | -61.11599 | 32092 ft | 491 kts | 332° |
| 2026-04-26 22:22 | 15.59049 | -61.13077 | 31249 ft | 491 kts | 332° |
| 2026-04-26 22:22 | 15.62167 | -61.14582 | 30448 ft | 489 kts | 332° |
| 2026-04-26 22:23 | 15.65249 | -61.16069 | 29974 ft | 480 kts | 332° |
| 2026-04-26 22:23 | 15.68214 | -61.17500 | 29489 ft | 472 kts | 332° |
| 2026-04-26 22:23 | 15.71203 | -61.18943 | 28952 ft | 466 kts | 332° |
| 2026-04-26 22:23 | 15.74140 | -61.20364 | 28419 ft | 473 kts | 332° |
| 2026-04-26 22:24 | 15.77163 | -61.21827 | 27855 ft | 482 kts | 332° |
| 2026-04-26 22:24 | 15.80233 | -61.23312 | 27273 ft | 490 kts | 333° |
| 2026-04-26 22:24 | 15.83334 | -61.24813 | 26671 ft | 490 kts | 333° |
| 2026-04-26 22:24 | 15.86396 | -61.26293 | 26074 ft | 483 kts | 332° |
| 2026-04-26 22:25 | 15.89428 | -61.27760 | 25484 ft | 477 kts | 333° |
| 2026-04-26 22:25 | 15.92442 | -61.29219 | 24881 ft | 471 kts | 333° |
| 2026-04-26 22:25 | 15.95394 | -61.30648 | 24287 ft | 466 kts | 332° |
| 2026-04-26 22:25 | 15.98301 | -61.32056 | 23695 ft | 462 kts | 333° |
| 2026-04-26 22:26 | 16.01195 | -61.33459 | 23107 ft | 461 kts | 332° |
| 2026-04-26 22:26 | 16.04120 | -61.34878 | 22505 ft | 461 kts | 332° |
| 2026-04-26 22:26 | 16.07044 | -61.36297 | 21903 ft | 462 kts | 333° |
| 2026-04-26 22:26 | 16.09924 | -61.37694 | 21296 ft | 464 kts | 333° |
| 2026-04-26 22:27 | 16.12873 | -61.39126 | 20658 ft | 464 kts | 333° |
| 2026-04-26 22:27 | 16.15795 | -61.40544 | 20015 ft | 459 kts | 333° |
| 2026-04-26 22:27 | 16.18668 | -61.41939 | 19388 ft | 452 kts | 333° |
| 2026-04-26 22:27 | 16.21497 | -61.43312 | 18763 ft | 446 kts | 333° |
| 2026-04-26 22:28 | 16.24296 | -61.44672 | 18142 ft | 439 kts | 333° |
| 2026-04-26 22:28 | 16.27063 | -61.46017 | 17526 ft | 433 kts | 333° |
| 2026-04-26 22:28 | 16.29792 | -61.47344 | 16920 ft | 426 kts | 333° |
| 2026-04-26 22:28 | 16.32434 | -61.48629 | 16334 ft | 420 kts | 333° |
| 2026-04-26 22:29 | 16.35065 | -61.49909 | 15732 ft | 413 kts | 334° |
| 2026-04-26 22:29 | 16.37639 | -61.51162 | 15139 ft | 399 kts | 334° |
| 2026-04-26 22:29 | 16.40106 | -61.52362 | 14602 ft | 386 kts | 334° |
| 2026-04-26 22:29 | 16.42536 | -61.53546 | 14100 ft | 378 kts | 334° |
| 2026-04-26 22:30 | 16.44914 | -61.54705 | 13527 ft | 375 kts | 334° |
| 2026-04-26 22:30 | 16.47281 | -61.55858 | 12967 ft | 371 kts | 334° |
| 2026-04-26 22:30 | 16.49596 | -61.56987 | 12430 ft | 368 kts | 335° |
| 2026-04-26 22:30 | 16.51943 | -61.58131 | 11884 ft | 364 kts | 335° |
| 2026-04-26 22:31 | 16.54226 | -61.59244 | 11352 ft | 361 kts | 335° |
| 2026-04-26 22:31 | 16.56483 | -61.60345 | 10872 ft | 357 kts | 335° |
| 2026-04-26 22:31 | 16.58693 | -61.61423 | 10752 ft | 341 kts | 335° |
| 2026-04-26 22:31 | 16.60814 | -61.62458 | 10661 ft | 326 kts | 335° |
| 2026-04-26 22:32 | 16.62841 | -61.63447 | 10537 ft | 314 kts | 335° |
| 2026-04-26 22:32 | 16.64781 | -61.64394 | 10394 ft | 303 kts | 335° |
| 2026-04-26 22:32 | 16.66668 | -61.65310 | 10228 ft | 293 kts | 335° |
| 2026-04-26 22:32 | 16.68506 | -61.66185 | 9875 ft | 292 kts | 336° |
| 2026-04-26 22:33 | 16.70375 | -61.67080 | 9431 ft | 294 kts | 336° |
| 2026-04-26 22:33 | 16.73952 | -61.69123 | 8811 ft | 285 kts | 314° |
| 2026-04-26 22:33 | 16.75097 | -61.70768 | 8708 ft | 284 kts | 304° |
| 2026-04-26 22:34 | 16.76294 | -61.72411 | 8451 ft | 283 kts | 311° |
| 2026-04-26 22:34 | 16.77654 | -61.73905 | 8127 ft | 282 kts | 315° |
| 2026-04-26 22:34 | 16.79053 | -61.75311 | 7795 ft | 280 kts | 316° |
| 2026-04-26 22:34 | 16.80488 | -61.76721 | 7455 ft | 279 kts | 316° |
| 2026-04-26 22:35 | 16.81886 | -61.78093 | 7128 ft | 278 kts | 316° |
| 2026-04-26 22:35 | 16.83310 | -61.79489 | 6792 ft | 277 kts | 317° |
| 2026-04-26 22:35 | 16.84703 | -61.80856 | 6464 ft | 276 kts | 317° |
| 2026-04-26 22:35 | 16.86094 | -61.82222 | 6136 ft | 275 kts | 317° |
| 2026-04-26 22:36 | 16.87504 | -61.83607 | 5809 ft | 274 kts | 317° |
| 2026-04-26 22:36 | 16.88883 | -61.84961 | 5484 ft | 273 kts | 317° |
| 2026-04-26 22:36 | 16.90276 | -61.86329 | 5160 ft | 272 kts | 317° |
| 2026-04-26 22:36 | 16.91638 | -61.87667 | 4844 ft | 272 kts | 317° |
| 2026-04-26 22:37 | 16.93166 | -61.88834 | 4511 ft | 270 kts | 338° |
| 2026-04-26 22:37 | 16.94999 | -61.89223 | 4209 ft | 270 kts | 358° |
| 2026-04-26 22:37 | 16.96888 | -61.89311 | 3925 ft | 270 kts | 360° |
| 2026-04-26 22:37 | 16.98766 | -61.89379 | 3615 ft | 269 kts | 360° |
| 2026-04-26 22:38 | 17.00640 | -61.89444 | 3319 ft | 267 kts | 360° |
| 2026-04-26 22:38 | 17.02502 | -61.89510 | 3042 ft | 266 kts | 0° |
| 2026-04-26 22:38 | 17.04347 | -61.89577 | 2857 ft | 261 kts | 0° |
| 2026-04-26 22:38 | 17.06162 | -61.89575 | 2632 ft | 254 kts | 12° |
| 2026-04-26 22:39 | 17.07730 | -61.88935 | 2332 ft | 237 kts | 41° |
| 2026-04-26 22:39 | 17.08755 | -61.87690 | 2048 ft | 213 kts | 63° |
| 2026-04-26 22:39 | 17.09475 | -61.86407 | 1700 ft | 204 kts | 64° |
| 2026-04-26 22:39 | 17.10203 | -61.85134 | 1151 ft | 198 kts | 62° |
| 2026-04-26 22:40 | 17.10893 | -61.83965 | 1009 ft | 187 kts | 62° |
| 2026-04-26 22:40 | 17.11579 | -61.82815 | 644 ft | 180 kts | 62° |
| 2026-04-26 22:40 | 17.12181 | -61.81772 | 353 ft | 155 kts | 60° |
| 2026-04-26 22:40 | 17.12765 | -61.80788 | 164 ft | 162 kts | 59° |
| 2026-04-26 22:41 | 17.13347 | -61.79827 | 72 ft | 145 kts | 60° |
| 2026-04-26 22:41 | 17.13728 | -61.79170 | 62 ft | 31 kts | 57° |
| 2026-04-26 22:41 | 17.13808 | -61.79097 | 62 ft | 8 kts | 345° |
| 2026-04-26 22:41 | 17.13825 | -61.79104 | 62 ft | 0 kts | 333° |
| 2026-04-26 22:42 | 17.13837 | -61.79111 | 62 ft | 5 kts | 325° |
| 2026-04-26 22:42 | 17.13854 | -61.79136 | 63 ft | 2 kts | 284° |
| 2026-04-26 22:42 | 17.13849 | -61.79168 | 64 ft | 5 kts | 253° |
| 2026-04-26 22:43 | 17.13829 | -61.79219 | 66 ft | 11 kts | 241° |
| 2026-04-26 22:43 | 17.13824 | -61.79269 | 68 ft | 6 kts | 288° |
| 2026-04-26 22:43 | 17.13848 | -61.79294 | 69 ft | 4 kts | 328° |
| 2026-04-26 22:43 | 17.13868 | -61.79306 | 70 ft | 2 kts | 328° |
| 2026-04-26 22:44 | 17.13874 | -61.79311 | 70 ft | 0 kts | 328° |
| 2026-04-26 22:51 | 17.13874 | -61.79310 | 70 ft | 0 kts | 328° |
| 2026-04-26 22:52 | 17.13874 | -61.79311 | 70 ft | 0 kts | 328° |
| 2026-04-26 22:52 | 17.13874 | -61.79310 | 70 ft | 0 kts | 328° |
| 2026-04-26 22:54 | 17.13874 | -61.79311 | 70 ft | 0 kts | 328° |
| 2026-04-26 22:54 | 17.13874 | -61.79310 | 70 ft | 0 kts | 328° |
| 2026-04-26 23:02 | 17.13874 | -61.79311 | 70 ft | 0 kts | 328° |
| 2026-04-26 23:03 | 17.13874 | -61.79310 | 70 ft | 0 kts | 328° |
| 2026-04-26 23:03 | 17.13874 | -61.79311 | 70 ft | 0 kts | 328° |
| 2026-04-26 23:03 | 17.13874 | -61.79310 | 70 ft | 0 kts | 328° |
| 2026-04-26 23:04 | 17.13874 | -61.79311 | 70 ft | 0 kts | 328° |
| 2026-04-26 23:05 | 17.13874 | -61.79310 | 70 ft | 0 kts | 328° |
| 2026-04-26 23:06 | 17.13874 | -61.79311 | 70 ft | 0 kts | 328° |
| 2026-04-26 23:07 | 17.13874 | -61.79310 | 70 ft | 0 kts | 328° |
| 2026-04-26 23:07 | 17.13874 | -61.79311 | 70 ft | 0 kts | 328° |
| 2026-04-26 23:07 | 17.13874 | -61.79310 | 70 ft | 0 kts | 328° |
| 2026-04-26 23:08 | 17.13874 | -61.79311 | 70 ft | 0 kts | 328° |
| 2026-04-26 23:08 | 17.13874 | -61.79310 | 70 ft | 0 kts | 328° |
| 2026-04-26 23:08 | 17.13874 | -61.79311 | 70 ft | 0 kts | 328° |
| 2026-04-26 23:10 | 17.13874 | -61.79310 | 70 ft | 0 kts | 328° |
| 2026-04-26 23:10 | 17.13874 | -61.79311 | 70 ft | 0 kts | 328° |
| 2026-04-26 23:11 | 17.13874 | -61.79310 | 70 ft | 0 kts | 328° |
| 2026-04-26 23:11 | 17.13874 | -61.79311 | 70 ft | 0 kts | 328° |
| 2026-04-26 23:12 | 17.13874 | -61.79310 | 70 ft | 0 kts | 328° |
| 2026-04-26 23:12 | 17.13874 | -61.79311 | 70 ft | 0 kts | 328° |
| 2026-04-26 23:14 | 17.13874 | -61.79310 | 70 ft | 0 kts | 328° |
| 2026-04-26 23:15 | 17.13874 | -61.79311 | 70 ft | 0 kts | 328° |
| 2026-04-26 23:15 | 17.13874 | -61.79310 | 70 ft | 0 kts | 328° |
| 2026-04-26 23:15 | 17.13874 | -61.79311 | 70 ft | 0 kts | 328° |
| 2026-04-26 23:16 | 17.13874 | -61.79310 | 70 ft | 0 kts | 328° |
| 2026-04-26 23:16 | 17.13874 | -61.79311 | 70 ft | 0 kts | 328° |
| 2026-04-26 23:18 | 17.13874 | -61.79310 | 70 ft | 0 kts | 328° |
| 2026-04-26 23:18 | 17.13874 | -61.79311 | 70 ft | 0 kts | 328° |
| 2026-04-26 23:19 | 17.13874 | -61.79310 | 70 ft | 0 kts | 328° |
| 2026-04-26 23:19 | 17.13874 | -61.79311 | 70 ft | 0 kts | 328° |